createdAt,value
2023-03-03T00:01:33.219Z,37.00
2023-03-03T00:04:01.402Z,38.00
2023-03-03T00:06:30.688Z,36.90
2023-03-03T00:08:58.879Z,37.10
2023-03-03T00:11:27.244Z,38.30
2023-03-03T00:13:56.564Z,38.40
2023-03-03T00:16:26.441Z,38.70
2023-03-03T00:18:55.551Z,35.80
2023-03-03T00:21:29.883Z,40.30
2023-03-03T00:24:18.819Z,41.30
2023-03-03T00:26:58.462Z,40.70
2023-03-03T00:29:56.646Z,44.70
2023-03-03T00:32:29.663Z,39.40
2023-03-03T00:35:17.879Z,36.50
2023-03-03T00:37:46.139Z,34.40
2023-03-03T00:40:26.960Z,31.40
2023-03-03T00:42:57.116Z,35.10
2023-03-03T00:45:31.526Z,40.60
2023-03-03T00:48:00.337Z,38.90
2023-03-03T00:50:31.991Z,33.50
2023-03-03T00:53:01.083Z,35.30
2023-03-03T00:55:30.490Z,39.30
2023-03-03T00:57:58.762Z,36.20
2023-03-03T01:00:28.883Z,35.00
2023-03-03T01:02:57.488Z,37.40
2023-03-03T01:05:25.939Z,39.90
2023-03-03T01:07:54.108Z,39.10
2023-03-03T01:10:22.280Z,33.20
2023-03-03T01:12:50.370Z,34.70
2023-03-03T01:15:19.240Z,34.80
2023-03-03T01:17:47.410Z,41.10
2023-03-03T01:20:16.411Z,41.50
2023-03-03T01:22:44.589Z,38.60
2023-03-03T01:25:12.959Z,42.40
2023-03-03T01:27:41.129Z,38.30
2023-03-03T01:30:10.117Z,40.50
2023-03-03T01:32:38.491Z,37.00
2023-03-03T01:35:07.383Z,38.20
2023-03-03T01:37:38.934Z,35.20
2023-03-03T01:40:11.797Z,34.40
2023-03-03T01:42:39.986Z,35.00
2023-03-03T01:45:20.350Z,34.50
2023-03-03T01:47:54.566Z,34.40
2023-03-03T01:50:32.151Z,35.10
2023-03-03T01:53:03.194Z,34.10
2023-03-03T01:55:34.935Z,34.50
2023-03-03T01:58:16.426Z,41.30
2023-03-03T02:00:47.060Z,40.70
2023-03-03T02:05:43.517Z,43.70
2023-03-03T02:08:17.004Z,42.20
2023-03-03T02:10:46.405Z,37.50
2023-03-03T02:13:14.587Z,30.90
2023-03-03T02:15:42.855Z,29.90
2023-03-03T02:18:13.701Z,31.80
2023-03-03T02:23:37.582Z,30.30
2023-03-03T02:26:19.276Z,30.50
2023-03-03T02:28:47.454Z,29.80
2023-03-03T02:31:17.666Z,28.90
2023-03-03T02:33:48.503Z,32.80
2023-03-03T02:39:04.302Z,32.20
2023-03-03T02:41:45.477Z,32.10
2023-03-03T02:44:16.291Z,35.30
2023-03-03T02:46:49.097Z,29.70
2023-03-03T02:49:21.200Z,28.80
2023-03-03T02:51:50.327Z,28.30
2023-03-03T02:54:21.258Z,28.10
2023-03-03T02:56:50.084Z,28.40
2023-03-03T02:59:18.551Z,32.80
2023-03-03T03:01:49.381Z,36.00
2023-03-03T03:04:21.974Z,35.00
2023-03-03T03:06:51.681Z,33.40
2023-03-03T03:09:21.784Z,33.10
2023-03-03T03:11:51.286Z,35.60
2023-03-03T03:14:22.026Z,30.60
2023-03-03T03:16:50.408Z,32.70
2023-03-03T03:19:18.567Z,32.40
2023-03-03T03:21:47.057Z,33.40
2023-03-03T03:24:15.331Z,38.00
2023-03-03T03:26:47.501Z,35.50
2023-03-03T03:29:16.273Z,34.30
2023-03-03T03:31:45.675Z,35.60
2023-03-03T03:34:14.570Z,28.70
2023-03-03T03:36:43.252Z,27.50
2023-03-03T03:39:12.137Z,30.90
2023-03-03T03:44:11.349Z,29.20
2023-03-03T03:46:39.731Z,28.80
2023-03-03T03:49:08.316Z,31.00
2023-03-03T03:51:41.493Z,32.40
2023-03-03T03:54:11.514Z,27.60
2023-03-03T03:56:41.021Z,23.30
2023-03-03T03:59:09.618Z,23.50
2023-03-03T04:01:38.087Z,25.40
2023-03-03T04:04:06.563Z,28.10
2023-03-03T04:06:35.762Z,27.60
2023-03-03T04:09:05.367Z,24.30
2023-03-03T04:11:33.846Z,25.80
2023-03-03T04:14:04.175Z,24.70
2023-03-03T04:16:33.572Z,22.30
2023-03-03T04:19:01.856Z,20.90
2023-03-03T04:21:30.223Z,22.20
2023-03-03T04:24:00.039Z,22.60
2023-03-03T04:26:29.128Z,21.80
2023-03-03T04:28:58.930Z,26.90
2023-03-03T04:31:27.973Z,24.00
2023-03-03T04:33:56.510Z,27.50
2023-03-03T04:36:25.711Z,21.50
2023-03-03T04:38:54.500Z,24.00
2023-03-03T04:41:23.689Z,22.90
2023-03-03T04:43:51.866Z,26.90
2023-03-03T04:46:20.428Z,24.70
2023-03-03T04:48:49.340Z,25.00
2023-03-03T04:51:19.246Z,24.70
2023-03-03T04:53:47.726Z,27.60
2023-03-03T04:56:16.002Z,25.20
2023-03-03T04:58:44.173Z,25.00
2023-03-03T05:01:14.837Z,26.40
2023-03-03T05:03:43.214Z,29.50
2023-03-03T05:06:12.069Z,31.90
2023-03-03T05:08:40.236Z,25.40
2023-03-03T05:11:08.404Z,33.40
2023-03-03T05:13:36.592Z,29.80
2023-03-03T05:16:05.604Z,29.30
2023-03-03T05:18:33.945Z,60.20
2023-03-03T05:21:02.218Z,41.30
2023-03-03T05:23:31.499Z,81.80
2023-03-03T05:25:59.689Z,32.80
2023-03-03T05:28:28.065Z,28.30
2023-03-03T05:30:56.276Z,29.20
2023-03-03T05:33:24.613Z,36.80
2023-03-03T05:35:57.009Z,30.90
2023-03-03T05:38:25.571Z,31.30
2023-03-03T05:40:54.966Z,35.40
2023-03-03T05:43:23.242Z,36.30
2023-03-03T05:45:58.039Z,32.90
2023-03-03T05:48:26.257Z,39.90
2023-03-03T05:50:54.425Z,40.20
2023-03-03T05:53:22.599Z,38.90
2023-03-03T05:55:50.760Z,38.30
2023-03-03T05:58:18.834Z,36.80
2023-03-03T06:00:47.208Z,38.00
2023-03-03T06:03:15.518Z,46.00
2023-03-03T06:05:43.716Z,43.20
2023-03-03T06:08:12.134Z,38.90
2023-03-03T06:10:40.313Z,51.20
2023-03-03T06:13:08.893Z,78.00
2023-03-03T06:15:37.214Z,37.00
2023-03-03T06:18:05.550Z,40.90
2023-03-03T06:20:34.021Z,38.00
2023-03-03T06:23:02.503Z,47.20
2023-03-03T06:25:30.679Z,49.10
2023-03-03T06:27:58.847Z,39.90
2023-03-03T06:30:28.557Z,50.00
2023-03-03T06:32:57.135Z,46.40
2023-03-03T06:35:25.463Z,48.20
2023-03-03T06:37:53.989Z,48.90
2023-03-03T06:40:22.293Z,39.10
2023-03-03T06:42:50.751Z,46.70
2023-03-03T06:45:19.223Z,41.10
2023-03-03T06:47:47.395Z,38.50
2023-03-03T06:50:19.457Z,47.90
2023-03-03T06:52:47.629Z,39.10
2023-03-03T06:55:23.510Z,40.60
2023-03-03T06:57:51.656Z,41.50
2023-03-03T07:00:24.701Z,37.60
2023-03-03T07:03:14.730Z,35.80
2023-03-03T07:05:43.930Z,36.90
2023-03-03T07:08:18.158Z,42.90
2023-03-03T07:10:47.144Z,40.70
2023-03-03T07:13:24.630Z,51.60
2023-03-03T07:15:54.249Z,43.40
2023-03-03T07:18:33.679Z,45.00
2023-03-03T07:21:17.713Z,43.90
2023-03-03T07:23:48.657Z,38.90
2023-03-03T07:26:22.403Z,40.70
2023-03-03T07:28:54.942Z,43.10
2023-03-03T07:31:27.511Z,44.00
2023-03-03T07:33:56.195Z,42.20
2023-03-03T07:36:30.861Z,43.60
2023-03-03T07:39:05.736Z,42.40
2023-03-03T07:41:35.050Z,45.50
2023-03-03T07:44:07.114Z,48.50
2023-03-03T07:46:43.643Z,49.00
2023-03-03T07:49:22.257Z,43.10
2023-03-03T07:51:57.829Z,40.90
2023-03-03T07:54:40.601Z,36.70
2023-03-03T07:57:11.805Z,40.20
2023-03-03T07:59:48.879Z,38.10
2023-03-03T08:02:29.034Z,37.30
2023-03-03T08:04:57.494Z,34.00
2023-03-03T08:07:25.790Z,38.80
2023-03-03T08:09:59.494Z,33.00
2023-03-03T08:12:42.480Z,37.20
2023-03-03T08:15:21.325Z,37.30
2023-03-03T08:17:50.725Z,35.30
2023-03-03T08:20:50.229Z,35.10
2023-03-03T08:23:19.859Z,29.70
2023-03-03T08:25:49.859Z,35.50
2023-03-03T08:28:19.148Z,31.90
2023-03-03T08:30:48.147Z,38.40
2023-03-03T08:33:16.919Z,41.10
2023-03-03T08:35:46.037Z,37.10
2023-03-03T08:38:16.336Z,34.90
2023-03-03T08:40:45.325Z,29.00
2023-03-03T08:43:17.428Z,31.50
2023-03-03T08:45:46.590Z,34.50
2023-03-03T08:48:15.373Z,35.80
2023-03-03T08:50:44.053Z,33.00
2023-03-03T08:53:13.559Z,35.20
2023-03-03T08:55:42.550Z,32.90
2023-03-03T08:58:10.830Z,30.50
2023-03-03T09:00:38.999Z,32.80
2023-03-03T09:03:07.744Z,34.50
2023-03-03T09:05:38.313Z,31.10
2023-03-03T09:08:08.026Z,37.30
2023-03-03T09:10:36.398Z,35.60
2023-03-03T09:13:13.897Z,37.80
2023-03-03T09:15:42.270Z,36.90
2023-03-03T09:18:39.739Z,34.50
2023-03-03T09:21:24.286Z,31.30
2023-03-03T09:23:57.589Z,30.70
2023-03-03T09:26:53.392Z,33.50
2023-03-03T09:29:29.757Z,31.40
2023-03-03T09:32:01.283Z,34.30
2023-03-03T09:34:42.710Z,35.80
2023-03-03T09:37:24.081Z,63.90
2023-03-03T09:39:57.681Z,30.30
2023-03-03T09:42:38.947Z,35.30
2023-03-03T09:45:18.106Z,34.90
2023-03-03T09:47:58.638Z,33.40
2023-03-03T09:50:42.170Z,30.90
2023-03-03T09:53:28.777Z,23.90
2023-03-03T09:56:20.194Z,25.20
2023-03-03T09:58:58.607Z,31.00
2023-03-03T10:01:41.009Z,30.70
2023-03-03T10:04:24.524Z,35.20
2023-03-03T10:07:19.048Z,24.30
2023-03-03T10:10:03.689Z,25.40
2023-03-03T10:12:39.447Z,27.80
2023-03-03T10:15:43.040Z,29.50
2023-03-03T10:18:33.209Z,26.80
2023-03-03T10:21:23.219Z,28.50
2023-03-03T10:23:59.242Z,30.30
2023-03-03T10:26:44.707Z,26.70
2023-03-03T10:29:34.527Z,22.50
2023-03-03T10:32:28.161Z,21.40
2023-03-03T10:35:24.515Z,22.00
2023-03-03T10:38:07.752Z,22.00
2023-03-03T10:40:51.193Z,21.40
2023-03-03T10:43:32.502Z,22.30
2023-03-03T10:46:22.753Z,24.70
2023-03-03T10:49:13.771Z,27.70
2023-03-03T10:52:12.039Z,31.50
2023-03-03T10:55:04.897Z,32.20
2023-03-03T10:57:52.520Z,29.30
2023-03-03T11:00:26.525Z,28.90
2023-03-03T11:03:11.494Z,33.60
2023-03-03T11:05:42.444Z,29.90
2023-03-03T11:08:19.620Z,30.10
2023-03-03T11:11:12.461Z,29.30
2023-03-03T11:13:59.952Z,30.70
2023-03-03T11:16:37.390Z,43.90
2023-03-03T11:19:24.696Z,48.40
2023-03-03T11:22:08.640Z,35.00
2023-03-03T11:25:08.969Z,31.70
2023-03-03T11:27:37.140Z,34.60
2023-03-03T11:30:27.331Z,33.10
2023-03-03T11:33:05.321Z,35.20
2023-03-03T11:35:47.430Z,34.40
2023-03-03T11:38:31.164Z,36.10
2023-03-03T11:41:08.035Z,31.70
2023-03-03T11:43:47.170Z,31.70
2023-03-03T11:46:18.556Z,23.40
2023-03-03T11:48:54.676Z,21.50
2023-03-03T11:51:47.634Z,22.90
2023-03-03T11:54:20.616Z,23.90
2023-03-03T11:56:49.092Z,24.70
2023-03-03T11:59:17.474Z,21.20
2023-03-03T12:02:28.076Z,21.10
2023-03-03T12:05:00.373Z,25.60
2023-03-03T12:07:52.437Z,21.50
2023-03-03T12:10:39.347Z,25.40
2023-03-03T12:13:19.498Z,21.20
2023-03-03T12:16:09.749Z,21.60
2023-03-03T12:19:12.883Z,19.80
2023-03-03T12:21:54.571Z,21.70
2023-03-03T12:24:29.000Z,20.30
2023-03-03T12:27:03.006Z,20.10
2023-03-03T12:29:47.043Z,19.20
2023-03-03T12:32:30.919Z,22.80
2023-03-03T12:35:15.143Z,20.40
2023-03-03T12:37:54.977Z,23.50
2023-03-03T12:40:35.954Z,22.70
2023-03-03T12:43:09.449Z,18.60
2023-03-03T12:45:46.835Z,21.00
2023-03-03T12:48:43.887Z,29.00
2023-03-03T12:51:28.140Z,28.70
2023-03-03T12:54:19.454Z,25.40
2023-03-03T12:56:58.905Z,23.00
2023-03-03T13:00:11.511Z,25.90
2023-03-03T13:02:51.550Z,28.20
2023-03-03T13:05:25.150Z,29.70
2023-03-03T13:08:18.540Z,30.80
2023-03-03T13:10:53.445Z,27.80
2023-03-03T13:13:30.320Z,30.40
2023-03-03T13:16:06.424Z,28.70
2023-03-03T13:18:47.860Z,27.80
2023-03-03T13:21:28.372Z,27.50
2023-03-03T13:24:22.810Z,30.00
2023-03-03T13:27:27.537Z,27.80
2023-03-03T13:29:58.369Z,24.70
2023-03-03T13:32:32.527Z,26.50
2023-03-03T13:35:34.156Z,29.10
2023-03-03T13:38:03.437Z,31.40
2023-03-03T13:40:43.857Z,32.50
2023-03-03T13:43:28.963Z,34.40
2023-03-03T13:46:21.924Z,34.40
2023-03-03T13:49:03.916Z,33.50
2023-03-03T13:51:48.678Z,37.10
2023-03-03T13:54:29.936Z,36.40
2023-03-03T13:57:23.227Z,35.00
2023-03-03T14:00:29.579Z,37.70
2023-03-03T14:03:03.706Z,40.80
2023-03-03T14:05:39.522Z,45.80
2023-03-03T14:08:25.766Z,39.50
2023-03-03T14:11:24.280Z,45.60
2023-03-03T14:14:12.267Z,40.40
2023-03-03T14:16:51.068Z,41.80
2023-03-03T14:19:24.684Z,40.10
2023-03-03T14:22:00.616Z,43.40
2023-03-03T14:24:29.525Z,43.60
2023-03-03T14:26:59.733Z,43.30
2023-03-03T14:29:27.854Z,43.00
2023-03-03T14:32:20.912Z,44.90
2023-03-03T14:34:59.597Z,47.20
2023-03-03T14:37:30.493Z,48.00
2023-03-03T14:40:21.640Z,43.70
2023-03-03T14:42:52.782Z,43.30
2023-03-03T14:45:32.225Z,43.50
2023-03-03T14:48:10.628Z,39.50
2023-03-03T14:50:41.569Z,44.10
2023-03-03T14:53:18.800Z,42.30
2023-03-03T14:55:49.316Z,42.90
2023-03-03T15:01:18.205Z,50.50
2023-03-03T15:03:49.789Z,44.10
2023-03-03T15:06:53.851Z,44.60
2023-03-03T15:09:41.943Z,48.40
2023-03-03T15:12:37.517Z,52.70
2023-03-03T15:15:05.690Z,45.60
2023-03-03T15:17:56.683Z,45.30
2023-03-03T15:20:33.762Z,44.70
2023-03-03T15:23:17.601Z,47.70
2023-03-03T15:26:02.876Z,44.70
2023-03-03T15:28:40.160Z,42.50
2023-03-03T15:31:14.097Z,42.20
2023-03-03T15:34:04.661Z,45.30
2023-03-03T15:36:49.426Z,44.60
2023-03-03T15:39:23.849Z,43.70
2023-03-03T15:41:59.490Z,39.30
2023-03-03T15:44:36.774Z,45.20
2023-03-03T15:47:23.482Z,43.20
2023-03-03T15:49:57.592Z,40.40
2023-03-03T15:53:06.213Z,40.40
2023-03-03T15:55:43.298Z,41.40
2023-03-03T15:58:11.364Z,38.20
2023-03-03T16:00:45.576Z,39.90
2023-03-03T16:03:46.724Z,38.20
2023-03-03T16:06:24.211Z,40.80
2023-03-03T16:09:17.164Z,43.70
2023-03-03T16:11:47.178Z,43.70
2023-03-03T16:14:33.706Z,41.10
2023-03-03T16:17:26.837Z,41.10
2023-03-03T16:20:16.925Z,42.80
2023-03-03T16:23:13.153Z,42.30
2023-03-03T16:25:55.558Z,47.40
2023-03-03T16:28:44.005Z,56.30
2023-03-03T16:31:34.155Z,47.30
2023-03-03T16:34:40.361Z,50.80
2023-03-03T16:37:11.607Z,49.40
2023-03-03T16:40:01.078Z,42.00
2023-03-03T16:42:33.858Z,44.80
2023-03-03T16:45:15.656Z,44.10
2023-03-03T16:47:59.192Z,41.70
2023-03-03T16:50:46.694Z,40.80
2023-03-03T16:53:43.144Z,43.90
2023-03-03T16:56:18.701Z,45.90
2023-03-03T16:59:16.772Z,43.30
2023-03-03T17:02:03.981Z,38.90
2023-03-03T17:04:37.411Z,43.90
2023-03-03T17:07:20.495Z,39.40
2023-03-03T17:10:28.320Z,40.90
2023-03-03T17:13:13.371Z,66.40
2023-03-03T17:15:47.786Z,57.00
2023-03-03T17:18:38.704Z,48.70
2023-03-03T17:21:36.447Z,44.00
2023-03-03T17:24:10.867Z,47.50
2023-03-03T17:26:56.137Z,54.10
2023-03-03T17:29:51.347Z,51.20
2023-03-03T17:32:53.826Z,43.00
2023-03-03T17:35:38.215Z,47.10
2023-03-03T17:38:45.774Z,44.60
2023-03-03T17:41:19.985Z,48.30
2023-03-03T17:44:16.214Z,46.40
2023-03-03T17:46:55.215Z,43.00
2023-03-03T17:49:58.138Z,48.40
2023-03-03T17:52:52.513Z,47.50
2023-03-03T17:55:33.887Z,40.10
2023-03-03T17:58:14.437Z,38.10
2023-03-03T18:01:01.064Z,39.60
2023-03-03T18:03:37.536Z,44.40
2023-03-03T18:06:26.901Z,33.40
2023-03-03T18:09:33.780Z,33.60
2023-03-03T18:12:37.179Z,31.50
2023-03-03T18:15:24.400Z,32.50
2023-03-03T18:17:59.540Z,30.50
2023-03-03T18:20:48.601Z,29.40
2023-03-03T18:23:42.384Z,27.20
2023-03-03T18:26:28.973Z,26.70
2023-03-03T18:29:19.059Z,34.00
2023-03-03T18:31:50.793Z,27.10
2023-03-03T18:34:18.985Z,24.70
2023-03-03T18:36:57.929Z,29.20
2023-03-03T18:39:46.316Z,25.70
2023-03-03T18:42:17.807Z,23.60
2023-03-03T18:44:46.182Z,23.50
2023-03-03T18:47:15.276Z,25.40
2023-03-03T18:49:49.849Z,25.80
2023-03-03T18:52:21.804Z,23.10
2023-03-03T18:55:09.384Z,24.00
2023-03-03T18:57:38.311Z,24.20
2023-03-03T19:00:36.759Z,24.30
2023-03-03T19:03:59.096Z,25.40
2023-03-03T19:06:36.382Z,25.80
2023-03-03T19:09:06.308Z,24.80
2023-03-03T19:11:50.959Z,27.90
2023-03-03T19:14:29.158Z,25.90
2023-03-03T19:16:59.223Z,32.50
2023-03-03T19:19:38.100Z,34.70
2023-03-03T19:22:26.164Z,25.20
2023-03-03T19:25:08.343Z,23.70
2023-03-03T19:27:39.066Z,33.00
2023-03-03T19:33:12.991Z,26.60
2023-03-03T19:36:00.142Z,24.20
2023-03-03T19:38:55.222Z,25.80
2023-03-03T19:42:01.072Z,22.80
2023-03-03T19:44:50.541Z,25.50
2023-03-03T19:47:36.950Z,23.00
2023-03-03T19:50:34.608Z,25.70
2023-03-03T19:53:21.312Z,25.60
2023-03-03T19:55:55.227Z,26.10
2023-03-03T19:58:32.716Z,28.80
2023-03-03T20:01:29.919Z,26.90
2023-03-03T20:04:16.362Z,29.50
2023-03-03T20:07:30.115Z,26.20
2023-03-03T20:10:11.691Z,25.00
2023-03-03T20:12:47.708Z,26.90
2023-03-03T20:15:21.403Z,27.70
2023-03-03T20:18:03.644Z,32.50
2023-03-03T20:20:47.279Z,31.50
2023-03-03T20:23:30.097Z,34.80
2023-03-03T20:26:29.919Z,33.10
2023-03-03T20:29:19.893Z,30.00
2023-03-03T20:31:53.139Z,35.50
2023-03-03T20:34:30.469Z,33.90
2023-03-03T20:37:04.417Z,32.10
2023-03-03T20:39:53.132Z,35.30
2023-03-03T20:42:30.107Z,33.30
2023-03-03T20:45:29.351Z,33.10
2023-03-03T20:48:22.467Z,33.50
2023-03-03T20:50:53.518Z,29.80
2023-03-03T20:53:46.673Z,38.30
2023-03-03T20:56:20.905Z,32.00
2023-03-03T20:58:55.513Z,30.00
2023-03-03T21:01:53.985Z,32.10
2023-03-03T21:04:22.230Z,33.90
2023-03-03T21:06:50.742Z,30.50
2023-03-03T21:09:31.622Z,32.70
2023-03-03T21:12:01.834Z,35.70
2023-03-03T21:14:33.998Z,32.60
2023-03-03T21:17:24.193Z,31.80
2023-03-03T21:19:52.359Z,30.80
2023-03-03T21:22:20.733Z,29.80
2023-03-03T21:24:58.019Z,32.00
2023-03-03T21:27:31.925Z,31.30
2023-03-03T21:30:15.362Z,31.10
2023-03-03T21:32:48.269Z,43.00
2023-03-03T21:35:19.172Z,52.10
2023-03-03T21:37:56.235Z,51.00
2023-03-03T21:40:29.549Z,35.90
2023-03-03T21:42:59.979Z,37.00
2023-03-03T21:45:30.295Z,33.70
2023-03-03T21:48:00.251Z,36.20
2023-03-03T21:50:32.962Z,34.40
2023-03-03T21:53:01.568Z,33.20
2023-03-03T21:55:29.744Z,31.60
2023-03-03T21:57:58.016Z,29.30
2023-03-03T22:00:26.612Z,28.40
2023-03-03T22:02:55.603Z,30.90
2023-03-03T22:05:23.760Z,36.30
2023-03-03T22:07:51.866Z,29.10
2023-03-03T22:10:20.004Z,32.50
2023-03-03T22:12:48.073Z,28.30
2023-03-03T22:15:16.347Z,23.90
2023-03-03T22:17:45.545Z,26.00
2023-03-03T22:20:17.404Z,26.60
2023-03-03T22:22:46.705Z,26.40
2023-03-03T22:25:14.975Z,24.00
2023-03-03T22:27:43.038Z,23.00
2023-03-03T22:30:12.143Z,24.00
2023-03-03T22:32:40.316Z,23.10
2023-03-03T22:35:09.192Z,20.60
2023-03-03T22:37:37.381Z,22.00
2023-03-03T22:40:06.163Z,20.60
2023-03-03T22:42:34.340Z,22.90
2023-03-03T22:45:02.509Z,23.70
2023-03-03T22:47:30.889Z,20.70
2023-03-03T22:49:59.569Z,22.30
2023-03-03T22:52:27.951Z,22.70
2023-03-03T22:54:58.281Z,19.60
2023-03-03T22:57:26.752Z,22.70
2023-03-03T22:59:54.928Z,23.70
2023-03-03T23:02:23.103Z,22.70
2023-03-03T23:04:58.398Z,22.90
2023-03-03T23:07:28.342Z,25.60
2023-03-03T23:09:56.930Z,24.60
2023-03-03T23:12:25.093Z,23.00
2023-03-03T23:14:53.266Z,26.50
2023-03-03T23:17:21.335Z,27.60
2023-03-03T23:19:49.712Z,25.20
2023-03-03T23:22:17.893Z,25.50
2023-03-03T23:24:46.056Z,30.00
2023-03-03T23:27:14.329Z,26.60
2023-03-03T23:29:42.503Z,24.50
2023-03-03T23:32:11.317Z,28.20
2023-03-03T23:34:39.669Z,28.40
2023-03-03T23:37:07.838Z,28.80
2023-03-03T23:39:36.319Z,29.90
2023-03-03T23:42:05.003Z,28.60
2023-03-03T23:44:33.075Z,31.40
2023-03-03T23:47:01.351Z,28.30
2023-03-03T23:49:29.524Z,32.20
2023-03-03T23:51:57.693Z,33.10
2023-03-03T23:54:26.382Z,29.80
2023-03-03T23:56:54.857Z,30.60
2023-03-03T23:59:23.233Z,33.50
